Time;durP1;ratioP1;P1;durP2;ratioP2;P2;SDS_P1;SDS_P2;PMS_P1;PMS_P2;Temp;Humidity;BMP_temperature;BMP_pressure;BME280_temperature;BME280_humidity;BME280_pressure;Samples;Min_cycle;Max_cycle;Signal;HPM_P1;HPM_P2
2021/11/16 00:01:08;;;;;;;58.35;29.70;;;8.40;97.50;;;;;;5082918;28;20024;-63
2021/11/16 00:03:33;;;;;;;58.10;30.42;;;8.40;97.50;;;;;;5062807;28;20060;-63
2021/11/16 00:05:59;;;;;;;56.35;29.33;;;8.40;97.50;;;;;;5053890;28;20057;-63
2021/11/16 00:08:25;;;;;;;54.55;30.52;;;8.40;97.60;;;;;;5065936;28;20029;-63
2021/11/16 00:10:51;;;;;;;59.13;28.92;;;8.40;97.60;;;;;;5060158;28;20025;-63
2021/11/16 00:13:17;;;;;;;59.95;30.65;;;8.50;97.60;;;;;;5065976;28;20028;-63
2021/11/16 00:15:44;;;;;;;58.88;28.90;;;8.50;97.60;;;;;;5074138;28;20032;-63
2021/11/16 00:18:11;;;;;;;60.75;31.00;;;8.50;97.60;;;;;;5070278;28;20048;-64
2021/11/16 00:20:43;;;;;;;58.75;31.70;;;8.50;97.50;;;;;;5074148;28;20056;-63
2021/11/16 00:23:16;;;;;;;55.13;28.50;;;8.40;97.50;;;;;;5069276;28;20032;-63
2021/11/16 00:25:43;;;;;;;59.88;31.98;;;8.50;97.60;;;;;;5053899;28;20025;-63
2021/11/16 00:28:09;;;;;;;62.25;31.05;;;8.40;97.50;;;;;;5054079;28;20682;-64
2021/11/16 00:30:35;;;;;;;53.00;29.60;;;8.40;97.60;;;;;;5053791;28;20116;-64
2021/11/16 00:33:01;;;;;;;55.35;31.40;;;8.40;97.50;;;;;;5053547;28;20495;-64
2021/11/16 00:35:26;;;;;;;59.97;31.13;;;8.40;97.60;;;;;;5066000;28;20504;-64
2021/11/16 00:37:52;;;;;;;59.03;30.73;;;8.40;97.60;;;;;;5070826;28;20143;-63
2021/11/16 00:40:19;;;;;;;57.15;30.45;;;8.40;97.60;;;;;;5073230;28;20047;-63
2021/11/16 00:42:47;;;;;;;63.13;30.25;;;8.40;97.60;;;;;;5067484;28;20028;-62
2021/11/16 00:45:14;;;;;;;56.95;30.02;;;8.40;97.70;;;;;;5072776;28;20557;-63
2021/11/16 00:47:41;;;;;;;58.85;29.50;;;8.40;97.70;;;;;;5065287;28;20112;-63
2021/11/16 00:50:07;;;;;;;54.45;30.45;;;8.40;97.70;;;;;;5056566;28;20035;-63
2021/11/16 00:52:33;;;;;;;57.65;29.95;;;8.50;97.70;;;;;;5064423;28;20481;-63
2021/11/16 00:54:59;;;;;;;66.32;33.00;;;8.50;97.60;;;;;;5052819;28;20132;-63
2021/11/16 00:57:25;;;;;;;57.67;31.85;;;8.50;97.60;;;;;;5053151;28;20626;-63
2021/11/16 00:59:51;;;;;;;61.92;31.90;;;8.50;97.60;;;;;;5052095;28;20036;-63
2021/11/16 01:02:17;;;;;;;61.00;29.90;;;8.40;97.50;;;;;;5052627;28;20021;-63
2021/11/16 01:04:49;;;;;;;61.92;30.75;;;8.40;97.50;;;;;;5052536;28;20075;-64
2021/11/16 01:07:16;;;;;;;60.72;32.65;;;8.30;97.50;;;;;;5054682;28;20096;-63
2021/11/16 01:09:43;;;;;;;74.57;30.17;;;8.30;97.60;;;;;;5071672;28;20025;-64
2021/11/16 01:12:09;;;;;;;60.30;31.40;;;8.30;97.70;;;;;;5059558;28;20113;-63
2021/11/16 01:14:35;;;;;;;54.35;27.67;;;8.30;97.70;;;;;;5071715;28;20047;-64
2021/11/16 01:17:01;;;;;;;56.60;29.92;;;8.30;97.70;;;;;;5070406;28;20122;-63
2021/11/16 01:19:27;;;;;;;58.83;29.90;;;8.30;97.70;;;;;;5072063;28;20044;-63
2021/11/16 01:21:52;;;;;;;50.53;27.95;;;8.40;97.70;;;;;;5071706;28;20020;-63
2021/11/16 01:24:19;;;;;;;59.47;30.20;;;8.30;97.60;;;;;;5072546;28;20021;-64
2021/11/16 01:26:46;;;;;;;54.35;30.08;;;8.40;97.60;;;;;;5068372;28;20021;-63
2021/11/16 01:29:13;;;;;;;57.80;30.17;;;8.40;97.70;;;;;;5052136;28;20040;-63
2021/11/16 01:31:39;;;;;;;53.05;29.80;;;8.30;97.70;;;;;;5055270;28;20493;-63
2021/11/16 01:34:06;;;;;;;59.25;30.88;;;8.30;97.70;;;;;;5052725;28;20504;-63
2021/11/16 01:36:32;;;;;;;62.53;31.77;;;8.30;97.70;;;;;;5059963;28;20078;-63
2021/11/16 01:38:59;;;;;;;62.88;32.13;;;8.30;97.70;;;;;;5069113;28;20036;-63
2021/11/16 01:41:27;;;;;;;61.80;32.00;;;8.30;97.80;;;;;;5064655;28;20119;-63
2021/11/16 01:43:53;;;;;;;59.58;30.00;;;8.30;97.80;;;;;;5054408;28;20078;-63
2021/11/16 01:46:19;;;;;;;58.33;30.88;;;8.30;97.90;;;;;;5060433;28;20024;-63
2021/11/16 01:48:52;;;;;;;57.75;30.85;;;8.30;97.90;;;;;;5054897;28;20036;-63
2021/11/16 01:51:20;;;;;;;57.55;31.90;;;8.30;97.90;;;;;;5069951;28;20120;-63
2021/11/16 01:53:49;;;;;;;63.15;32.80;;;8.30;97.90;;;;;;5054752;28;20024;-63
2021/11/16 01:56:14;;;;;;;60.20;32.50;;;8.30;97.90;;;;;;5051349;28;20049;-62
2021/11/16 01:58:41;;;;;;;62.25;31.63;;;8.30;97.90;;;;;;5063421;28;20496;-63
2021/11/16 02:01:06;;;;;;;58.55;31.58;;;8.30;97.90;;;;;;5071429;28;20081;-63
2021/11/16 02:03:32;;;;;;;63.90;32.45;;;8.30;97.80;;;;;;5059722;28;20112;-62
2021/11/16 02:06:22;;;;;;;58.55;31.17;;;8.40;97.90;;;;;;5051369;28;20746;-62
2021/11/16 02:08:49;;;;;;;60.53;31.88;;;8.30;97.90;;;;;;5052116;28;20036;-63
2021/11/16 02:11:16;;;;;;;61.35;32.33;;;8.30;97.80;;;;;;5071308;28;20103;-63
2021/11/16 02:13:41;;;;;;;66.03;34.13;;;8.30;97.80;;;;;;5069580;28;20040;-63
2021/11/16 02:16:07;;;;;;;64.82;33.50;;;8.30;97.80;;;;;;5070336;28;20024;-63
2021/11/16 02:18:34;;;;;;;64.60;33.75;;;8.20;97.80;;;;;;5073841;28;20769;-63
2021/11/16 02:21:00;;;;;;;57.45;31.60;;;8.20;97.80;;;;;;5091698;28;20545;-63
2021/11/16 02:23:25;;;;;;;59.90;32.72;;;8.20;97.80;;;;;;5065330;28;20123;-63
2021/11/16 02:25:51;;;;;;;59.40;31.13;;;8.10;97.90;;;;;;5071313;28;20017;-63
2021/11/16 02:28:18;;;;;;;62.20;31.80;;;8.10;97.90;;;;;;5070139;28;20389;-63
2021/11/16 02:30:46;;;;;;;61.00;30.27;;;8.10;97.90;;;;;;5065871;28;20078;-64
2021/11/16 02:33:13;;;;;;;58.97;30.48;;;8.10;97.90;;;;;;5055634;28;20029;-64
2021/11/16 02:35:39;;;;;;;58.05;31.42;;;8.10;98.00;;;;;;5058566;28;20082;-64
2021/11/16 02:38:05;;;;;;;59.55;30.67;;;8.10;98.00;;;;;;5059686;28;20033;-64
2021/11/16 02:40:31;;;;;;;60.45;31.02;;;8.10;98.00;;;;;;5051138;28;20155;-64
2021/11/16 02:42:57;;;;;;;64.63;30.75;;;8.10;98.00;;;;;;5051495;28;20076;-64
2021/11/16 02:45:23;;;;;;;61.58;31.48;;;8.10;98.00;;;;;;5051323;28;20021;-63
2021/11/16 02:47:49;;;;;;;63.42;33.63;;;8.10;98.00;;;;;;5058203;28;20021;-63
2021/11/16 02:50:15;;;;;;;57.97;29.90;;;8.10;98.00;;;;;;5069162;28;20097;-63
2021/11/16 02:52:41;;;;;;;62.78;30.75;;;8.10;98.10;;;;;;5069628;28;20024;-63
2021/11/16 02:55:08;;;;;;;53.53;29.00;;;8.20;98.10;;;;;;5070649;28;20020;-63
2021/11/16 02:57:34;;;;;;;54.28;30.38;;;8.10;98.10;;;;;;5069931;28;20044;-63
2021/11/16 03:00:03;;;;;;;54.80;28.10;;;8.20;98.10;;;;;;5049859;28;20048;-63
2021/11/16 03:02:28;;;;;;;54.75;28.48;;;8.10;98.10;;;;;;5050766;28;20040;-63
2021/11/16 03:04:54;;;;;;;55.85;29.58;;;8.20;98.10;;;;;;5071212;28;20025;-63
2021/11/16 03:07:38;;;;;;;59.33;30.85;;;8.20;98.10;;;;;;5056498;28;20033;-63
2021/11/16 03:10:04;;;;;;;55.17;29.02;;;8.10;98.00;;;;;;5071352;28;20050;-63
2021/11/16 03:12:31;;;;;;;56.35;32.28;;;8.10;98.10;;;;;;5069237;28;20051;-63
2021/11/16 03:14:58;;;;;;;60.38;29.30;;;8.10;98.10;;;;;;5058178;28;20083;-63
2021/11/16 03:17:25;;;;;;;60.05;31.42;;;8.10;98.10;;;;;;5069000;28;20388;-63
2021/11/16 03:19:51;;;;;;;57.65;30.40;;;8.20;98.10;;;;;;5062549;28;20559;-63
2021/11/16 03:22:16;;;;;;;56.22;29.63;;;8.20;98.10;;;;;;5064785;28;20028;-63
2021/11/16 03:24:43;;;;;;;52.40;28.50;;;8.10;98.10;;;;;;5073806;28;20552;-63
2021/11/16 03:27:11;;;;;;;56.88;28.88;;;8.10;98.10;;;;;;5073058;28;20107;-63
2021/11/16 03:29:43;;;;;;;57.10;30.90;;;8.20;98.10;;;;;;5066567;28;20036;-64
2021/11/16 03:32:12;;;;;;;60.20;30.00;;;8.10;98.10;;;;;;5058852;28;20028;-63
2021/11/16 03:34:42;;;;;;;55.65;28.98;;;8.10;98.10;;;;;;5064505;28;20064;-62
2021/11/16 03:37:08;;;;;;;55.67;29.08;;;8.10;98.10;;;;;;5062807;28;20071;-63
2021/11/16 03:39:35;;;;;;;55.95;31.02;;;8.10;98.10;;;;;;5054353;28;20036;-62
2021/11/16 03:42:01;;;;;;;57.90;31.35;;;8.00;98.20;;;;;;5064689;28;20052;-63
2021/11/16 03:44:27;;;;;;;58.28;31.92;;;8.10;98.20;;;;;;5057641;28;20091;-63
2021/11/16 03:46:52;;;;;;;57.42;30.42;;;8.10;98.30;;;;;;5055710;28;20028;-63
2021/11/16 03:49:18;;;;;;;59.20;30.13;;;8.10;98.30;;;;;;5057293;28;20103;-62
2021/11/16 03:51:45;;;;;;;58.20;29.90;;;8.10;98.30;;;;;;5062859;28;20032;-63
2021/11/16 03:54:11;;;;;;;63.88;33.15;;;8.10;98.30;;;;;;5055505;28;20033;-63
2021/11/16 03:56:38;;;;;;;56.90;30.70;;;8.10;98.30;;;;;;5059925;28;20128;-63
2021/11/16 03:59:04;;;;;;;58.38;30.25;;;8.20;98.30;;;;;;5074057;28;20097;-63
2021/11/16 04:01:30;;;;;;;57.72;31.55;;;8.10;98.30;;;;;;5072171;28;20153;-63
2021/11/16 04:03:58;;;;;;;59.53;31.38;;;8.10;98.30;;;;;;5060737;28;20040;-63
2021/11/16 04:06:24;;;;;;;58.17;31.50;;;8.10;98.30;;;;;;5067685;28;20434;-62
2021/11/16 04:08:50;;;;;;;59.90;30.77;;;8.10;98.30;;;;;;5061563;28;20064;-63
2021/11/16 04:11:16;;;;;;;62.60;30.95;;;8.20;98.30;;;;;;5064901;28;20025;-63
2021/11/16 04:13:44;;;;;;;60.03;33.15;;;8.20;98.30;;;;;;5063380;28;20040;-64
2021/11/16 04:16:10;;;;;;;61.53;32.78;;;8.20;98.30;;;;;;5066923;28;20392;-64
2021/11/16 04:18:36;;;;;;;62.92;31.05;;;8.20;98.30;;;;;;5063253;28;20057;-64
2021/11/16 04:21:02;;;;;;;58.20;31.42;;;8.30;98.40;;;;;;5054133;28;20032;-64
2021/11/16 04:23:28;;;;;;;59.75;31.88;;;8.20;98.30;;;;;;5053454;28;20481;-64
2021/11/16 04:25:55;;;;;;;63.40;33.03;;;8.20;98.40;;;;;;5056631;28;20035;-64
2021/11/16 04:28:21;;;;;;;60.33;31.85;;;8.20;98.40;;;;;;5072902;28;20511;-64
2021/11/16 04:30:48;;;;;;;56.70;30.25;;;8.20;98.40;;;;;;5058761;28;20030;-64
2021/11/16 04:33:16;;;;;;;57.75;31.42;;;8.20;98.40;;;;;;5071847;28;20029;-64
2021/11/16 04:35:42;;;;;;;60.72;32.28;;;8.20;98.40;;;;;;5066521;28;20130;-64
2021/11/16 04:38:11;;;;;;;60.05;31.08;;;8.20;98.40;;;;;;5068118;28;20025;-63
2021/11/16 04:40:41;;;;;;;57.50;28.35;;;8.20;98.40;;;;;;5059181;28;20117;-63
2021/11/16 04:43:14;;;;;;;58.83;30.15;;;8.20;98.40;;;;;;5056142;28;20422;-64
2021/11/16 04:45:41;;;;;;;56.50;30.17;;;8.20;98.40;;;;;;5069255;28;20090;-64
2021/11/16 05:03:53;;;;;;;69.03;32.03;;;8.30;98.40;;;;;;5065147;28;20024;-64
2021/11/16 05:06:19;;;;;;;62.85;29.27;;;8.30;98.40;;;;;;5064751;28;20037;-64
2021/11/16 05:08:47;;;;;;;66.72;31.33;;;8.30;98.40;;;;;;5052813;28;20602;-64
2021/11/16 05:11:14;;;;;;;57.78;31.98;;;8.30;98.40;;;;;;5052416;28;20477;-64
2021/11/16 05:13:43;;;;;;;61.90;31.33;;;8.30;98.40;;;;;;5052331;28;20170;-64
2021/11/16 05:16:10;;;;;;;64.78;32.83;;;8.20;98.40;;;;;;5056990;28;20040;-64
2021/11/16 05:18:35;;;;;;;60.83;31.70;;;8.20;98.30;;;;;;5069203;28;20048;-64
2021/11/16 05:21:01;;;;;;;65.90;30.52;;;8.20;98.30;;;;;;5066781;28;20024;-64
2021/11/16 05:23:27;;;;;;;64.40;33.08;;;8.20;98.40;;;;;;5063742;28;20032;-64
2021/11/16 05:25:54;;;;;;;72.32;35.17;;;8.20;98.40;;;;;;5067786;28;20025;-64
2021/11/16 05:28:21;;;;;;;63.72;32.28;;;8.30;98.40;;;;;;5059151;28;20037;-64
2021/11/16 05:30:47;;;;;;;68.57;33.95;;;8.20;98.40;;;;;;5052727;28;20029;-63
2021/11/16 05:33:14;;;;;;;68.95;33.53;;;8.20;98.50;;;;;;5064636;28;20031;-63
2021/11/16 05:35:40;;;;;;;65.43;33.17;;;8.30;98.50;;;;;;5069613;28;20396;-63
2021/11/16 05:38:06;;;;;;;69.32;32.22;;;8.20;98.50;;;;;;5052384;28;20025;-63
2021/11/16 05:40:33;;;;;;;67.63;32.30;;;8.30;98.50;;;;;;5052554;28;20477;-63
2021/11/16 05:42:59;;;;;;;70.07;33.17;;;8.30;98.50;;;;;;5065377;28;20020;-63
2021/11/16 05:45:25;;;;;;;72.20;34.72;;;8.30;98.50;;;;;;5060499;28;20032;-63
2021/11/16 05:47:55;;;;;;;66.13;32.78;;;8.30;98.50;;;;;;5060038;28;20024;-63
2021/11/16 05:50:22;;;;;;;63.38;32.88;;;8.30;98.50;;;;;;5051557;28;20060;-63
2021/11/16 05:52:49;;;;;;;63.10;31.48;;;8.30;98.50;;;;;;5058889;28;20024;-63
2021/11/16 05:55:14;;;;;;;65.45;31.92;;;8.30;98.50;;;;;;5070025;28;20028;-64
2021/11/16 05:57:40;;;;;;;73.25;34.38;;;8.30;98.50;;;;;;5055296;28;20166;-64
2021/11/16 06:00:08;;;;;;;67.30;33.30;;;8.30;98.50;;;;;;5056697;28;20066;-63
2021/11/16 06:02:34;;;;;;;63.47;32.90;;;8.30;98.50;;;;;;5053662;28;20025;-64
2021/11/16 06:05:00;;;;;;;65.80;33.42;;;8.30;98.50;;;;;;5071965;28;20036;-64
2021/11/16 06:07:26;;;;;;;66.28;33.20;;;8.30;98.50;;;;;;5067034;28;20075;-63
2021/11/16 06:09:52;;;;;;;69.43;33.22;;;8.30;98.60;;;;;;5051663;28;20074;-64
2021/11/16 06:12:17;;;;;;;73.03;34.42;;;8.30;98.50;;;;;;5063640;28;20032;-63
2021/11/16 06:14:43;;;;;;;66.97;32.40;;;8.30;98.50;;;;;;5051430;28;20036;-64
2021/11/16 06:17:09;;;;;;;65.22;33.75;;;8.40;98.60;;;;;;5064424;28;20031;-64
2021/11/16 06:19:38;;;;;;;71.82;34.03;;;8.30;98.50;;;;;;5052192;28;20052;-64
2021/11/16 06:22:07;;;;;;;66.30;33.33;;;8.30;98.60;;;;;;5063781;28;20511;-64
2021/11/16 06:24:33;;;;;;;57.33;31.73;;;8.30;98.60;;;;;;5068740;28;20028;-64
2021/11/16 06:26:59;;;;;;;61.88;30.20;;;8.30;98.60;;;;;;5077061;28;20036;-64
2021/11/16 06:29:24;;;;;;;56.13;28.75;;;8.30;98.50;;;;;;5050565;28;20029;-63
2021/11/16 06:31:51;;;;;;;54.60;29.77;;;8.30;98.50;;;;;;5062434;28;20028;-63
2021/11/16 06:34:16;;;;;;;56.03;27.42;;;8.30;98.50;;;;;;5056909;28;20053;-63
2021/11/16 06:36:42;;;;;;;55.50;29.33;;;8.40;98.50;;;;;;5060359;28;20029;-63
2021/11/16 06:39:13;;;;;;;55.00;27.45;;;8.40;98.50;;;;;;5051631;28;20044;-63
2021/11/16 06:41:39;;;;;;;54.55;29.05;;;8.30;98.50;;;;;;5051595;28;20036;-63
2021/11/16 06:44:08;;;;;;;51.65;27.13;;;8.30;98.40;;;;;;5051482;28;20358;-63
2021/11/16 06:46:33;;;;;;;50.95;27.00;;;8.40;98.50;;;;;;5059537;28;20074;-63
2021/11/16 06:49:00;;;;;;;52.38;27.20;;;8.30;98.60;;;;;;5071507;28;20631;-63
2021/11/16 06:51:26;;;;;;;50.38;26.40;;;8.40;98.40;;;;;;5058031;28;20031;-63
2021/11/16 06:53:52;;;;;;;52.00;26.50;;;8.30;98.40;;;;;;5061355;28;20504;-63
2021/11/16 06:56:24;;;;;;;56.30;27.58;;;8.30;98.40;;;;;;5057703;28;20037;-64
2021/11/16 06:58:50;;;;;;;55.45;28.52;;;8.40;98.50;;;;;;5054195;28;20408;-64
2021/11/16 07:01:16;;;;;;;51.13;26.75;;;8.30;98.40;;;;;;5055863;28;20025;-64
2021/11/16 07:03:48;;;;;;;49.03;26.83;;;8.40;98.50;;;;;;5060354;28;20503;-63
2021/11/16 07:06:14;;;;;;;54.20;24.90;;;8.40;98.50;;;;;;5062082;28;20032;-64
2021/11/16 07:08:42;;;;;;;51.60;27.05;;;8.40;98.50;;;;;;5062026;28;20029;-64
2021/11/16 07:11:07;;;;;;;56.70;27.65;;;8.30;98.50;;;;;;5064202;28;20051;-64
2021/11/16 07:13:35;;;;;;;51.58;28.17;;;8.40;98.50;;;;;;5055318;28;20465;-64
2021/11/16 07:16:01;;;;;;;57.40;28.70;;;8.40;98.60;;;;;;5055341;28;20090;-63
2021/11/16 07:18:26;;;;;;;55.33;27.25;;;8.40;98.60;;;;;;5054951;28;20041;-63
2021/11/16 07:21:00;;;;;;;49.45;26.50;;;8.40;98.60;;;;;;5057228;28;20033;-64
2021/11/16 07:23:26;;;;;;;53.70;27.15;;;8.40;98.80;;;;;;5074138;28;20036;-63
2021/11/16 07:25:52;;;;;;;55.75;26.75;;;8.40;98.80;;;;;;5066345;28;20024;-64
2021/11/16 07:28:18;;;;;;;57.05;27.00;;;8.40;98.60;;;;;;5075183;28;20467;-64
2021/11/16 07:30:43;;;;;;;54.60;27.48;;;8.40;98.70;;;;;;5064826;28;20396;-64
2021/11/16 07:33:11;;;;;;;54.97;29.00;;;8.40;98.70;;;;;;5054929;28;20017;-63
2021/11/16 07:35:39;;;;;;;55.28;27.08;;;8.40;98.70;;;;;;5055174;28;20033;-63
2021/11/16 07:38:07;;;;;;;59.47;29.92;;;8.40;98.70;;;;;;5065123;28;20077;-63
2021/11/16 07:40:34;;;;;;;64.30;29.35;;;8.40;98.70;;;;;;5063184;28;20082;-63
2021/11/16 07:43:21;;;;;;;57.05;28.67;;;8.40;98.70;;;;;;5061700;28;20032;-63
2021/11/16 07:45:51;;;;;;;57.45;28.48;;;8.40;98.70;;;;;;5061965;28;20519;-63
2021/11/16 07:48:21;;;;;;;54.05;28.15;;;8.50;98.80;;;;;;5069940;28;20028;-63
2021/11/16 07:50:51;;;;;;;57.90;27.83;;;8.50;98.80;;;;;;5065343;28;20096;-63
2021/11/16 07:53:38;;;;;;;56.92;29.23;;;8.50;98.80;;;;;;5064406;28;20086;-63
2021/11/16 07:56:09;;;;;;;59.58;27.80;;;8.60;99.00;;;;;;5054171;28;20101;-63
2021/11/16 07:58:48;;;;;;;56.90;29.58;;;8.60;98.90;;;;;;5058353;28;20071;-62
2021/11/16 08:01:20;;;;;;;63.15;28.77;;;8.60;99.10;;;;;;5061511;28;20033;-61
2021/11/16 08:03:51;;;;;;;59.38;28.23;;;8.60;99.20;;;;;;5059339;28;20060;-62
2021/11/16 08:06:31;;;;;;;58.00;29.73;;;8.60;98.90;;;;;;5069134;28;20035;-63
2021/11/16 08:09:17;;;;;;;59.33;30.08;;;8.70;98.90;;;;;;5066815;28;20392;-62
2021/11/16 08:11:51;;;;;;;60.35;31.00;;;8.70;98.80;;;;;;5066371;28;20050;-62
2021/11/16 08:14:17;;;;;;;57.63;29.05;;;8.70;98.80;;;;;;5067138;28;20036;-63
2021/11/16 08:16:54;;;;;;;64.35;30.95;;;8.80;98.80;;;;;;5056571;28;20033;-62
2021/11/16 08:19:26;;;;;;;70.50;32.47;;;8.70;98.80;;;;;;5052993;28;20378;-61
2021/11/16 08:21:56;;;;;;;62.03;28.73;;;8.80;99.00;;;;;;5059766;28;20031;-63
2021/11/16 08:24:24;;;;;;;59.13;28.20;;;8.80;98.80;;;;;;5055501;28;20068;-62
2021/11/16 08:26:51;;;;;;;62.80;31.08;;;8.80;98.80;;;;;;5061301;28;20021;-62
2021/11/16 08:29:26;;;;;;;58.05;29.67;;;8.80;98.80;;;;;;5055173;28;20104;-62
2021/11/16 08:31:58;;;;;;;;;;;8.90;98.80;;;;;;5052674;28;20025;-62
2021/11/16 08:34:26;;;;;;;58.72;29.13;;;8.90;98.80;;;;;;5061019;28;19913;-62
2021/11/16 08:36:54;;;;;;;62.78;29.02;;;8.90;98.80;;;;;;5051828;28;20071;-62
2021/11/16 08:39:37;;;;;;;59.88;29.38;;;9.00;98.80;;;;;;5059966;28;20520;-63
2021/11/16 08:42:30;;;;;;;64.18;31.08;;;9.10;98.80;;;;;;5062710;28;20040;-63
2021/11/16 08:45:06;;;;;;;60.58;29.80;;;9.10;98.80;;;;;;5061571;28;20397;-63
2021/11/16 08:47:38;;;;;;;61.42;28.92;;;9.10;98.70;;;;;;5060779;28;20035;-63
2021/11/16 08:50:06;;;;;;;64.85;30.80;;;9.20;98.70;;;;;;5060016;28;20551;-63
2021/11/16 08:52:32;;;;;;;65.15;29.35;;;9.20;98.70;;;;;;5067320;28;20145;-62
2021/11/16 08:55:07;;;;;;;61.20;29.38;;;9.30;98.70;;;;;;5053065;28;20047;-62
2021/11/16 08:57:34;;;;;;;53.78;28.60;;;9.30;98.70;;;;;;5027536;28;20120;-62
2021/11/16 09:00:01;;;;;;;55.08;28.15;;;9.40;98.70;;;;;;5027845;28;20522;-63
2021/11/16 09:02:29;;;;;;;60.47;28.65;;;9.40;98.60;;;;;;5023053;28;20037;-63
2021/11/16 09:04:54;;;;;;;59.53;29.33;;;9.50;98.60;;;;;;5018332;28;20026;-62
2021/11/16 09:07:26;;;;;;;66.38;30.83;;;9.50;98.50;;;;;;5021353;28;20441;-62
2021/11/16 09:10:06;;;;;;;58.20;30.30;;;9.50;98.40;;;;;;5016196;28;20157;-63
2021/11/16 09:12:40;;;;;;;64.15;29.85;;;9.60;98.40;;;;;;5011951;28;20022;-62
2021/11/16 09:15:07;;;;;;;59.42;29.40;;;9.70;98.30;;;;;;5011612;28;20499;-63
2021/11/16 09:17:35;;;;;;;67.20;32.70;;;9.70;98.20;;;;;;5015495;28;20033;-63
2021/11/16 09:20:19;;;;;;;60.78;31.25;;;9.70;98.10;;;;;;5025599;28;20040;-63
2021/11/16 09:22:46;;;;;;;61.90;29.77;;;9.70;98.00;;;;;;5016783;28;20033;-63
2021/11/16 09:25:26;;;;;;;62.92;31.65;;;9.70;98.00;;;;;;5021648;28;20068;-62
2021/11/16 09:28:11;;;;;;;60.78;29.02;;;9.70;97.90;;;;;;5018960;28;20041;-63
2021/11/16 09:30:43;;;;;;;62.45;31.40;;;9.70;97.90;;;;;;5024621;28;20116;-62
2021/11/16 09:33:22;;;;;;;61.30;31.13;;;9.70;97.90;;;;;;5030175;28;20037;-63
2021/11/16 09:35:58;;;;;;;59.20;28.55;;;9.70;97.90;;;;;;5026672;28;20530;-63
2021/11/16 09:38:48;;;;;;;53.33;27.88;;;9.70;98.00;;;;;;5023624;28;20033;-62
2021/11/16 09:41:20;;;;;;;59.35;28.55;;;9.70;97.90;;;;;;5012914;28;20323;-63
2021/11/16 09:44:03;;;;;;;61.35;29.05;;;9.80;98.00;;;;;;5020578;28;20058;-63
2021/11/16 09:46:29;;;;;;;62.05;29.25;;;9.70;97.90;;;;;;5016653;28;20033;-62
2021/11/16 09:49:02;;;;;;;57.00;29.55;;;9.80;97.90;;;;;;5030080;28;20032;-63
2021/11/16 09:51:28;;;;;;;53.25;27.98;;;9.80;97.90;;;;;;5022956;28;20079;-63
2021/11/16 09:54:06;;;;;;;59.03;27.63;;;9.80;97.90;;;;;;5031727;28;20445;-63
2021/11/16 09:56:33;;;;;;;55.05;27.30;;;9.90;97.80;;;;;;5050374;28;20048;-63
2021/11/16 09:58:59;;;;;;;54.55;27.02;;;9.90;97.80;;;;;;5055211;28;20037;-63
2021/11/16 10:01:35;;;;;;;53.67;27.48;;;9.90;97.80;;;;;;5071326;28;20097;-63
2021/11/16 10:04:19;;;;;;;55.50;28.50;;;9.90;97.90;;;;;;5071776;28;20031;-63
2021/11/16 10:06:45;;;;;;;59.38;28.83;;;10.00;97.80;;;;;;5070845;28;20027;-63
2021/11/16 10:09:11;;;;;;;66.78;31.88;;;10.00;97.70;;;;;;5066389;28;20024;-63
2021/11/16 10:11:42;;;;;;;57.42;29.60;;;10.00;97.60;;;;;;5066793;28;20504;-63
2021/11/16 10:14:17;;;;;;;53.17;28.80;;;10.00;97.60;;;;;;5054934;28;20110;-63
2021/11/16 10:16:43;;;;;;;54.42;26.90;;;10.00;97.60;;;;;;5051849;28;20059;-63
2021/11/16 10:19:09;;;;;;;54.13;27.77;;;10.00;97.60;;;;;;5057291;28;20037;-64
2021/11/16 10:21:35;;;;;;;53.70;27.40;;;10.10;97.70;;;;;;5071458;28;20389;-62
2021/11/16 10:24:01;;;;;;;56.60;28.10;;;10.10;97.50;;;;;;5070616;28;20036;-63
2021/11/16 10:26:34;;;;;;;53.63;27.23;;;10.10;97.50;;;;;;5066171;28;20070;-63
2021/11/16 10:29:00;;;;;;;52.17;25.90;;;10.10;97.50;;;;;;5051324;28;20175;-63
2021/11/16 10:31:31;;;;;;;54.35;29.85;;;10.20;97.50;;;;;;5049957;28;20159;-63
2021/11/16 10:33:58;;;;;;;54.85;29.63;;;10.20;97.50;;;;;;5055138;28;20118;-63
2021/11/16 10:36:24;;;;;;;52.55;27.85;;;10.30;97.50;;;;;;5071340;28;20027;-62
2021/11/16 10:38:58;;;;;;;62.25;31.30;;;10.30;97.40;;;;;;5062435;28;20512;-63
2021/11/16 10:41:30;;;;;;;52.15;27.73;;;10.30;97.40;;;;;;5080456;28;20062;-62
2021/11/16 10:44:01;;;;;;;59.92;27.65;;;10.40;97.40;;;;;;5090649;28;20032;-64
2021/11/16 10:46:29;;;;;;;52.35;26.20;;;10.40;97.30;;;;;;5064482;28;20425;-63
2021/11/16 10:48:58;;;;;;;62.42;29.40;;;10.50;97.30;;;;;;5057719;28;20556;-63
2021/11/16 10:51:31;;;;;;;57.97;29.05;;;10.50;97.20;;;;;;5050922;28;20485;-63
2021/11/16 10:53:59;;;;;;;56.00;29.88;;;10.50;97.20;;;;;;5060273;28;20025;-63
2021/11/16 10:56:28;;;;;;;51.88;27.08;;;10.60;97.10;;;;;;5050618;28;20060;-63
2021/11/16 10:59:01;;;;;;;55.30;28.25;;;10.60;97.00;;;;;;5051623;28;20044;-63
2021/11/16 11:01:26;;;;;;;55.47;28.23;;;10.70;97.00;;;;;;5074332;28;20028;-63
2021/11/16 11:03:55;;;;;;;53.88;27.33;;;10.70;96.90;;;;;;5091091;28;20027;-63
2021/11/16 11:06:26;;;;;;;55.70;27.60;;;10.70;96.90;;;;;;5053453;28;20404;-63
2021/11/16 11:08:55;;;;;;;59.67;28.58;;;10.70;96.80;;;;;;5050704;28;20038;-63
2021/11/16 11:11:23;;;;;;;51.67;27.02;;;10.80;96.80;;;;;;5050975;28;20044;-63
2021/11/16 11:14:06;;;;;;;56.55;27.95;;;10.80;96.80;;;;;;5051374;28;20021;-64
2021/11/16 11:16:53;;;;;;;56.42;27.13;;;10.80;96.70;;;;;;5049673;28;20036;-62
2021/11/16 11:19:34;;;;;;;54.47;25.77;;;10.90;96.70;;;;;;5050537;28;20378;-63
2021/11/16 11:22:21;;;;;;;55.45;27.70;;;10.90;96.70;;;;;;5049544;28;20028;-63
2021/11/16 11:25:03;;;;;;;49.88;25.38;;;10.90;96.60;;;;;;5051086;28;20614;-63
2021/11/16 11:27:45;;;;;;;53.58;27.17;;;10.90;96.60;;;;;;5050462;28;20030;-63
2021/11/16 11:30:15;;;;;;;49.22;25.55;;;10.90;96.60;;;;;;5050888;28;20431;-63
2021/11/16 11:32:44;;;;;;;51.88;26.25;;;11.00;96.50;;;;;;5067412;28;20090;-63
2021/11/16 11:35:12;;;;;;;51.08;27.70;;;11.00;96.50;;;;;;5066877;28;20503;-63
2021/11/16 11:37:43;;;;;;;54.78;26.70;;;11.00;96.40;;;;;;5058694;28;20046;-63
2021/11/16 11:40:25;;;;;;;49.20;25.75;;;11.10;96.40;;;;;;5070377;28;20403;-64
2021/11/16 11:43:01;;;;;;;48.33;26.52;;;11.10;96.30;;;;;;5072393;28;20009;-64
2021/11/16 11:45:38;;;;;;;53.67;25.75;;;11.10;96.20;;;;;;5092230;28;20375;-64
2021/11/16 11:48:03;;;;;;;52.08;26.15;;;11.10;96.20;;;;;;5086710;28;20047;-63
2021/11/16 11:50:39;;;;;;;46.00;25.10;;;11.10;96.20;;;;;;5053721;28;20580;-63
2021/11/16 11:53:11;;;;;;;47.85;24.80;;;11.10;96.10;;;;;;5054243;28;20032;-63
2021/11/16 11:55:41;;;;;;;51.72;27.25;;;11.10;96.10;;;;;;5054026;28;20521;-63
2021/11/16 11:58:07;;;;;;;49.60;25.90;;;11.20;96.30;;;;;;5054014;28;20025;-63
2021/11/16 12:00:34;;;;;;;55.05;27.95;;;11.20;96.30;;;;;;5062335;28;20024;-63
2021/11/16 12:03:00;;;;;;;51.92;25.60;;;11.20;96.10;;;;;;5093876;28;20024;-64
2021/11/16 12:05:30;;;;;;;51.05;26.13;;;11.20;96.00;;;;;;5079126;28;20501;-63
2021/11/16 12:07:57;;;;;;;51.13;28.02;;;11.30;96.00;;;;;;5054083;28;20052;-63
2021/11/16 12:10:23;;;;;;;49.90;26.67;;;11.30;96.00;;;;;;5054859;28;20024;-64
2021/11/16 12:12:50;;;;;;;50.72;26.45;;;11.30;96.00;;;;;;5064671;28;20183;-63
2021/11/16 12:15:25;;;;;;;48.85;25.63;;;11.30;95.90;;;;;;5053567;28;20060;-63
2021/11/16 12:17:52;;;;;;;50.03;25.45;;;11.30;95.90;;;;;;5053870;28;20032;-63
2021/11/16 12:20:37;;;;;;;50.97;26.27;;;11.30;95.90;;;;;;5053374;28;20489;-63
2021/11/16 12:23:04;;;;;;;51.05;25.83;;;11.20;95.80;;;;;;5061617;28;20050;-63
2021/11/16 12:25:30;;;;;;;49.70;25.88;;;11.30;95.90;;;;;;5073657;28;20495;-64
2021/11/16 12:27:58;;;;;;;50.25;27.38;;;11.30;95.80;;;;;;5061295;28;20032;-64
2021/11/16 12:30:38;;;;;;;48.65;26.98;;;11.30;95.70;;;;;;5053365;28;20023;-64
2021/11/16 12:33:05;;;;;;;51.58;26.60;;;11.20;95.70;;;;;;5052781;28;20420;-63
2021/11/16 12:35:32;;;;;;;51.63;27.38;;;11.20;95.80;;;;;;5057311;28;20059;-63
2021/11/16 12:37:59;;;;;;;54.45;28.92;;;11.20;95.80;;;;;;5053299;28;20522;-63
2021/11/16 12:40:31;;;;;;;58.83;30.00;;;11.20;95.80;;;;;;5049940;28;20041;-65
2021/11/16 12:43:18;;;;;;;54.00;27.63;;;11.20;95.80;;;;;;5058520;28;20150;-63
2021/11/16 12:45:56;;;;;;;50.72;26.08;;;11.20;95.70;;;;;;5052869;28;20040;-63
2021/11/16 12:48:49;;;;;;;51.17;28.90;;;11.30;95.80;;;;;;5064968;28;20071;-62
2021/11/16 12:51:17;;;;;;;47.65;25.40;;;11.30;95.80;;;;;;5062039;28;20437;-63
2021/11/16 12:53:52;;;;;;;48.65;24.52;;;11.30;95.70;;;;;;5058856;28;20163;-63
2021/11/16 12:56:18;;;;;;;;;;;11.30;95.60;;;;;;5064983;28;20040;-63
2021/11/16 12:58:56;;;;;;;44.13;23.58;;;11.20;95.80;;;;;;5063446;28;20019;-63
2021/11/16 13:01:45;;;;;;;47.03;24.80;;;11.20;95.60;;;;;;5051392;28;20033;-63